To NAV CANADA Home Page Login to a new session Search on AWWS site Disclaimer Vers la page française équivalente Tips FAQ What's new on the site To the Forecasts and Observations / NOTAM section To "File a Flight Plan" website Publications and other links Update of the User's profile FIC Telephone Numbers My Weather Data Folder Route Weather Data Regional Weather Data Local Weather Data To the Forecasts and Observations / NOTAM section
Request Generated 07/21/2018 at 19:14:21 UTC . Weather information available at that time is displayed.

METAR/TAF

TORONTO/LESTER B. PEARSON INTL/ON    

METAR CYYZ 211900Z 08010G16KT 15SM FEW080 BKN100 BKN280 25/19 A2990 RMK AC1AC4CI1 SLP125 DENSITY ALT 1900FT=
METAR CYYZ 211800Z 09011G16KT 15SM FEW060 OVC072 23/17 A2991 RMK SC1AC8 SC TR SLP129 DENSITY ALT 1700FT=
METAR CYYZ 211700Z 10011G18KT 15SM FEW060 BKN080 OVC120 25/17 A2992 RMK SC2AC5AC1 SLP130 DENSITY ALT 1900FT=

TAF CYYZ 211740Z 2118/2224 10010G20KT P6SM BKN080 BKN120
FM220000 07010G20KT P6SM BKN050 BKN160
FM220400 07008KT P6SM SCT050 BKN230
FM221100 06008G18KT P6SM FEW040 BKN080
FM221400 05010G20KT P6SM -SHRA SCT020 OVC040
FM221800 04008KT P6SM -RA SCT020 OVC030
FM222100 03012G22KT P6SM -RA BKN020 OVC030
RMK NXT FCST BY 212100Z=
Your time UTC time
Weather data provided by Environment Canada and NAV CANADA